Weather at Jacksonville International Airport

Public forecast

Using degrees Fahrenheit for public forecast. Weather courtesy of forecast.io.

Current aviation weather report (METAR) for Jacksonville International Airport

2024/06/22 11:56 (retrieved 50 minutes ago)

KJAX 221156Z 22007KT 10SM SCT009 SCT042 BKN110 BKN250 24/23 A3005 RMK AO2 SLP176 70003 T02440233 10256 20244 53012

Aviation forecast (TAF) for Jacksonville International Airport

2024/06/22 12:22 (retrieved 24 minutes ago)

TAF KJAX 221120Z 2212/2312 22007KT P6SM VCSH BKN040 FM221900 13008KT P6SM VCSH SCT030 BKN050 PROB30 2222/2301 4SM TSRA BKN030CB